Private Pilot Initial Solo

[caption id="attachment_1158" align="alignnone" width="150" caption="Click to Enlarge Image"][/caption] First: The Weather

KLGB 031953Z 01003KT 10SM CLR 36/03 A2999 RMK AO2 SLP155 T03610028

KPSP 031953Z 11006KT 10SM CLR 34/01 A3008 RMK AO2 SLP180 T03390011

KLAS 031956Z 00000KT 10SM CLR 27/01 A3021 RMK AO2 SLP211 T02720006

KSNA 031953Z 00000KT 10SM CLR 37/04 A2999 RMK AO2 SLP154 T03670039

Now: The News Congratulations to Rebecca Smith for completing her First Solo in a DA40! On a day where Vegas was 27 degrees C and Long Beach was 34 degrees C, Rebecca braved the heat and set off to earn her wings. She flew wonderfully well and piloted her plane for three lovely landings. Rebecca is working on the Professional Pilot program and is off to a great start. Well done, Rebecca!